Sunday, November 19, 2017, 2:55 AM GMT
Back to Local

CZBF, Bathurst Airport Aviation Weather Reporting Station

Location: , , Canada Lat: 47.633
Local Time: 2:55 AM GMT ( 2:55 GMT) Lon: -65.75
Time Zone: GMT Elev: 193 ft

Show me the last for .
Show Coded

Time T Td Feel RH Dir Speed Gust Alt SLP Vis Weather Sky Remarks
2017-11-19 02:00 27 21 - 79 Variable 2 - 29.74 29.76 15 OVC050 None
2017-11-19 01:00 27 21 - 79 Variable 2 - 29.76 29.77 15 OVC050 None
2017-11-19 00:00 27 21 - 79 - Calm - 29.76 29.77 15 OVC050 None
2017-11-18 23:00 27 21 - 79 Variable 2 - 29.75 29.77 15 OVC050 None
2017-11-18 22:00 27 21 17 79 250° 9 - 29.77 29.78 15 OVC120 None
2017-11-18 21:00 28 23 22 79 260° 6 - 29.75 29.76 15 OVC080 None
2017-11-18 20:00 28 21 23 74 280° 5 - 29.74 29.76 15 FEW030 BKN160 None
2017-11-18 19:00 30 23 25 74 300° 5 - 29.74 29.75 15 BKN030 BKN120 None
2017-11-18 18:00 32 23 21 68 280° 10 17 29.74 29.75 15 SCT030 SCT240 None
2017-11-18 17:00 32 23 20 68 290° 13 21 29.74 29.76 15 FEW030 FEW120 BKN240 None
2017-11-18 16:00 30 21 17 68 280° 12 22 29.76 29.77 15 FEW030 FEW120 FEW240 None
2017-11-18 15:00 28 19 15 68 320° 9 20 29.77 29.78 15 FEW030 FEW100 None
2017-11-18 14:00 27 19 12 73 290° 13 23 29.77 29.78 15 FEW020 FEW120 None
2017-11-18 13:00 25 19 11 79 270° 12 18 29.77 29.78 15 BKN020 BKN210 None
2017-11-18 12:00 25 19 10 79 270° 9 21 29.71 29.72 15 SCT030 None
2017-11-18 11:00 25 19 10 79 300° 13 23 29.68 29.70 15 FEW020 None
2017-11-18 10:00 25 19 8 79 290° 21 31 29.66 29.67 15 FEW020 None
2017-11-18 09:00 25 19 9 79 290° 14 24 29.65 29.67 15 SCT020 None
2017-11-18 08:00 25 19 7 79 290° 21 33 29.63 29.65 15 OVC020 None
2017-11-18 07:00 27 19 12 73 290° 14 23 29.62 29.63 15 SCT050 None
2017-11-18 06:00 27 21 11 79 300° 16 26 29.59 29.61 15 SCT050 None
2017-11-18 05:43 27 21 11 79 300° 18 29 29.59 29.60 15 SCT050 None
2017-11-18 05:00 28 21 13 74 290° 16 30 29.57 29.59 15 -SN OVC040 None
2017-11-18 04:00 28 23 14 79 300° 18 25 29.56 29.57 15 -SN OVC030 None
2017-11-18 03:00 30 25 14 80 290° 17 33 29.53 29.54 15 -SN OVC040 None

Support USWX by starting your Amazon purchase here.